Terminal Aerodrome Forecast
Issued by NWS

Home | Current Version | Previous Version | Text Only | Print | Product List | Glossary On
Versions: 1 2 3 4 5 6 7 8 9 10 11 12 13 14 15 16 17 18 19
000
FTUS43 KGRB 141136
TAFMTW
TAF
KMTW 141136Z 1412/1512 04008KT P6SM OVC025
     FM141600 07010G15KT P6SM -RA OVC025
     FM141800 08011G17KT 5SM -RA OVC012
     FM142000 08011G17KT 3SM RA BR OVC005
     FM142200 08010G17KT 1 1/2SM RA BR OVC003
     FM150800 32010KT 2SM RA BR OVC002=

USA.gov is the U.S. government's official web portal to all federal, state and local government web resources and services.